sensor_id;sensor_type;location;lat;lon;timestamp;pressure;altitude;pressure_sealevel;temperature;humidity
71239;BME280;61342;51.442;7.370;2022-11-21T00:00:18;98895.72;;;6.29;85.26
71239;BME280;61342;51.442;7.370;2022-11-21T00:01:26;98894.75;;;6.27;85.12
71239;BME280;61342;51.442;7.370;2022-11-21T00:02:27;98902.53;;;6.27;84.96
71239;BME280;61342;51.442;7.370;2022-11-21T00:03:27;98896.09;;;6.21;85.17
71239;BME280;61342;51.442;7.370;2022-11-21T00:04:27;98903.81;;;6.26;85.19
71239;BME280;61342;51.442;7.370;2022-11-21T00:05:30;98900.19;;;6.25;85.19
71239;BME280;61342;51.442;7.370;2022-11-21T00:06:30;98897.13;;;6.23;85.21
71239;BME280;61342;51.442;7.370;2022-11-21T00:07:31;98898.44;;;6.22;85.00
71239;BME280;61342;51.442;7.370;2022-11-21T00:08:31;98900.00;;;6.18;85.29
71239;BME280;61342;51.442;7.370;2022-11-21T00:09:31;98907.53;;;6.21;85.09
71239;BME280;61342;51.442;7.370;2022-11-21T00:10:35;98901.34;;;6.17;85.26
71239;BME280;61342;51.442;7.370;2022-11-21T00:11:35;98913.75;;;6.19;84.88
71239;BME280;61342;51.442;7.370;2022-11-21T00:12:36;98904.19;;;6.17;84.86
71239;BME280;61342;51.442;7.370;2022-11-21T00:13:37;98907.56;;;6.15;85.06
71239;BME280;61342;51.442;7.370;2022-11-21T00:14:37;98904.94;;;6.17;85.24
71239;BME280;61342;51.442;7.370;2022-11-21T00:15:38;98903.72;;;6.13;85.02
71239;BME280;61342;51.442;7.370;2022-11-21T00:16:38;98905.78;;;6.12;84.93
71239;BME280;61342;51.442;7.370;2022-11-21T00:17:39;98899.59;;;6.08;84.78
71239;BME280;61342;51.442;7.370;2022-11-21T00:18:39;98907.84;;;6.12;84.77
71239;BME280;61342;51.442;7.370;2022-11-21T00:19:40;98904.00;;;6.09;84.96
71239;BME280;61342;51.442;7.370;2022-11-21T00:20:41;98915.41;;;6.09;84.88
71239;BME280;61342;51.442;7.370;2022-11-21T00:21:42;98906.09;;;6.09;84.99
71239;BME280;61342;51.442;7.370;2022-11-21T00:22:42;98906.59;;;6.07;84.82
71239;BME280;61342;51.442;7.370;2022-11-21T00:23:43;98899.91;;;6.05;84.89
71239;BME280;61342;51.442;7.370;2022-11-21T00:24:44;98906.59;;;6.07;84.85
71239;BME280;61342;51.442;7.370;2022-11-21T00:25:44;98913.63;;;6.06;84.71
71239;BME280;61342;51.442;7.370;2022-11-21T00:26:44;98909.50;;;6.02;84.79
71239;BME280;61342;51.442;7.370;2022-11-21T00:27:45;98910.28;;;6.02;84.62
71239;BME280;61342;51.442;7.370;2022-11-21T00:28:45;98916.00;;;6.02;84.93
71239;BME280;61342;51.442;7.370;2022-11-21T00:29:45;98911.84;;;5.98;84.73
71239;BME280;61342;51.442;7.370;2022-11-21T00:30:46;98925.84;;;6.01;84.83
71239;BME280;61342;51.442;7.370;2022-11-21T00:31:46;98925.84;;;6.01;84.73
71239;BME280;61342;51.442;7.370;2022-11-21T00:32:46;98927.13;;;6.00;84.61
71239;BME280;61342;51.442;7.370;2022-11-21T00:33:47;98931.06;;;5.97;84.69
71239;BME280;61342;51.442;7.370;2022-11-21T00:34:47;98933.66;;;5.95;84.58
71239;BME280;61342;51.442;7.370;2022-11-21T00:35:48;98923.56;;;5.94;84.59
71239;BME280;61342;51.442;7.370;2022-11-21T00:36:48;98930.81;;;5.95;84.34
71239;BME280;61342;51.442;7.370;2022-11-21T00:37:49;98934.44;;;5.96;84.82
71239;BME280;61342;51.442;7.370;2022-11-21T00:38:50;98927.47;;;5.91;84.56
71239;BME280;61342;51.442;7.370;2022-11-21T00:39:50;98932.13;;;5.94;84.61
71239;BME280;61342;51.442;7.370;2022-11-21T00:40:50;98924.09;;;5.93;84.85
71239;BME280;61342;51.442;7.370;2022-11-21T00:41:51;98932.13;;;5.94;84.63
71239;BME280;61342;51.442;7.370;2022-11-21T00:42:51;98926.97;;;5.93;84.52
71239;BME280;61342;51.442;7.370;2022-11-21T00:43:51;98930.09;;;5.89;84.53
71239;BME280;61342;51.442;7.370;2022-11-21T00:44:52;98927.50;;;5.86;84.60
71239;BME280;61342;51.442;7.370;2022-11-21T00:45:52;98937.34;;;5.90;84.47
71239;BME280;61342;51.442;7.370;2022-11-21T00:46:52;98928.31;;;5.86;84.50
71239;BME280;61342;51.442;7.370;2022-11-21T00:47:53;98934.00;;;5.86;84.67
71239;BME280;61342;51.442;7.370;2022-11-21T00:48:53;98938.38;;;5.87;84.58
71239;BME280;61342;51.442;7.370;2022-11-21T00:49:53;98928.81;;;5.85;84.58
71239;BME280;61342;51.442;7.370;2022-11-21T00:50:54;98928.81;;;5.85;84.54
71239;BME280;61342;51.442;7.370;2022-11-21T00:51:54;98931.91;;;5.87;84.63
71239;BME280;61342;51.442;7.370;2022-11-21T00:52:55;98920.03;;;5.83;84.58
71239;BME280;61342;51.442;7.370;2022-11-21T00:53:56;98932.47;;;5.85;84.62
71239;BME280;61342;51.442;7.370;2022-11-21T00:54:56;98919.28;;;5.82;84.41
71239;BME280;61342;51.442;7.370;2022-11-21T00:55:57;98921.59;;;5.84;84.45
71239;BME280;61342;51.442;7.370;2022-11-21T00:56:57;98924.97;;;5.82;84.57
71239;BME280;61342;51.442;7.370;2022-11-21T00:57:58;98909.97;;;5.76;84.41
71239;BME280;61342;51.442;7.370;2022-11-21T00:58:58;98924.19;;;5.82;84.50
71239;BME280;61342;51.442;7.370;2022-11-21T00:59:58;98918.78;;;5.78;84.41
71239;BME280;61342;51.442;7.370;2022-11-21T01:02:03;98921.09;;;5.80;84.50
71239;BME280;61342;51.442;7.370;2022-11-21T01:03:04;98925.25;;;5.79;84.29
71239;BME280;61342;51.442;7.370;2022-11-21T01:04:04;98930.94;;;5.79;84.36
71239;BME280;61342;51.442;7.370;2022-11-21T01:05:05;98937.41;;;5.79;84.44
71239;BME280;61342;51.442;7.370;2022-11-21T01:06:11;98933.03;;;5.78;84.66
71239;BME280;61342;51.442;7.370;2022-11-21T01:07:13;98928.13;;;5.73;84.60
71239;BME280;61342;51.442;7.370;2022-11-21T01:08:13;98928.38;;;5.75;84.45
71239;BME280;61342;51.442;7.370;2022-11-21T01:09:13;98927.06;;;5.76;84.61
71239;BME280;61342;51.442;7.370;2022-11-21T01:10:14;98938.22;;;5.74;84.51
71239;BME280;61342;51.442;7.370;2022-11-21T01:11:17;98939.78;;;5.75;84.70
71239;BME280;61342;51.442;7.370;2022-11-21T01:12:18;98939.50;;;5.73;84.73
71239;BME280;61342;51.442;7.370;2022-11-21T01:13:18;98943.66;;;5.72;84.39
71239;BME280;61342;51.442;7.370;2022-11-21T01:14:18;98935.88;;;5.73;84.39
71239;BME280;61342;51.442;7.370;2022-11-21T01:15:19;98945.22;;;5.73;84.39
71239;BME280;61342;51.442;7.370;2022-11-21T01:16:21;98953.50;;;5.71;84.63
71239;BME280;61342;51.442;7.370;2022-11-21T01:17:22;98943.66;;;5.72;84.65
71239;BME280;61342;51.442;7.370;2022-11-21T01:18:23;98936.41;;;5.71;84.30
71239;BME280;61342;51.442;7.370;2022-11-21T01:19:23;98940.56;;;5.70;84.58
71239;BME280;61342;51.442;7.370;2022-11-21T01:20:23;98942.91;;;5.72;84.51
71239;BME280;61342;51.442;7.370;2022-11-21T01:21:29;98943.94;;;5.69;84.53
71239;BME280;61342;51.442;7.370;2022-11-21T01:22:31;98939.03;;;5.70;84.40
71239;BME280;61342;51.442;7.370;2022-11-21T01:23:32;98944.94;;;5.71;84.43
71239;BME280;61342;51.442;7.370;2022-11-21T01:24:32;98942.91;;;5.67;84.52
71239;BME280;61342;51.442;7.370;2022-11-21T01:25:34;98948.09;;;5.68;84.36
71239;BME280;61342;51.442;7.370;2022-11-21T01:26:34;98943.41;;;5.70;84.70
71239;BME280;61342;51.442;7.370;2022-11-21T01:27:37;98938.00;;;5.67;84.52
71239;BME280;61342;51.442;7.370;2022-11-21T01:28:37;98951.94;;;5.70;84.72
71239;BME280;61342;51.442;7.370;2022-11-21T01:29:37;98951.94;;;5.70;84.67
71239;BME280;61342;51.442;7.370;2022-11-21T01:30:38;98946.78;;;5.69;84.51
71239;BME280;61342;51.442;7.370;2022-11-21T01:31:38;98951.94;;;5.70;84.62
71239;BME280;61342;51.442;7.370;2022-11-21T01:32:38;98953.81;;;5.68;84.69
71239;BME280;61342;51.442;7.370;2022-11-21T01:33:39;98956.88;;;5.70;84.50
71239;BME280;61342;51.442;7.370;2022-11-21T01:34:39;98953.00;;;5.68;84.67
71239;BME280;61342;51.442;7.370;2022-11-21T01:35:40;98953.28;;;5.70;84.30
71239;BME280;61342;51.442;7.370;2022-11-21T01:36:40;98956.13;;;5.70;84.46
71239;BME280;61342;51.442;7.370;2022-11-21T01:37:40;98958.97;;;5.70;84.67
71239;BME280;61342;51.442;7.370;2022-11-21T01:38:43;98953.00;;;5.68;84.71
71239;BME280;61342;51.442;7.370;2022-11-21T01:39:44;98957.41;;;5.69;84.75
71239;BME280;61342;51.442;7.370;2022-11-21T01:40:44;98945.53;;;5.65;84.79
71239;BME280;61342;51.442;7.370;2022-11-21T01:41:45;98959.50;;;5.68;84.80
71239;BME280;61342;51.442;7.370;2022-11-21T01:42:52;98956.66;;;5.68;84.78
71239;BME280;61342;51.442;7.370;2022-11-21T01:43:53;98960.28;;;5.69;84.52
71239;BME280;61342;51.442;7.370;2022-11-21T01:44:53;98952.53;;;5.64;85.09
71239;BME280;61342;51.442;7.370;2022-11-21T01:47:07;98954.84;;;5.65;84.97
71239;BME280;61342;51.442;7.370;2022-11-21T01:48:07;98959.50;;;5.68;84.67
71239;BME280;61342;51.442;7.370;2022-11-21T01:49:13;98951.22;;;5.65;85.02
71239;BME280;61342;51.442;7.370;2022-11-21T01:50:15;98959.25;;;5.66;84.81
71239;BME280;61342;51.442;7.370;2022-11-21T01:52:28;98959.03;;;5.64;84.87
71239;BME280;61342;51.442;7.370;2022-11-21T01:53:31;98952.78;;;5.66;84.92
71239;BME280;61342;51.442;7.370;2022-11-21T01:54:39;98955.63;;;5.66;84.79
71239;BME280;61342;51.442;7.370;2022-11-21T01:55:41;98955.38;;;5.64;84.73
71239;BME280;61342;51.442;7.370;2022-11-21T01:57:06;98961.34;;;5.66;84.88
71239;BME280;61342;51.442;7.370;2022-11-21T01:58:09;98952.53;;;5.64;84.91
71239;BME280;61342;51.442;7.370;2022-11-21T01:59:16;98959.03;;;5.64;84.94
71239;BME280;61342;51.442;7.370;2022-11-21T02:00:26;98960.31;;;5.63;84.95
71239;BME280;61342;51.442;7.370;2022-11-21T02:01:28;98959.03;;;5.64;85.10
71239;BME280;61342;51.442;7.370;2022-11-21T02:02:33;98959.78;;;5.65;85.21
71239;BME280;61342;51.442;7.370;2022-11-21T02:03:37;98955.91;;;5.62;85.04
71239;BME280;61342;51.442;7.370;2022-11-21T02:04:38;98953.81;;;5.63;85.12
71239;BME280;61342;51.442;7.370;2022-11-21T02:05:40;98958.72;;;5.68;85.08
71239;BME280;61342;51.442;7.370;2022-11-21T02:06:40;98962.09;;;5.66;85.02
71239;BME280;61342;51.442;7.370;2022-11-21T02:07:43;98950.97;;;5.63;85.28
71239;BME280;61342;51.442;7.370;2022-11-21T02:08:44;98959.78;;;5.65;85.20
71239;BME280;61342;51.442;7.370;2022-11-21T02:09:48;98961.34;;;5.66;85.07
71239;BME280;61342;51.442;7.370;2022-11-21T02:12:32;98964.72;;;5.64;84.97
71239;BME280;61342;51.442;7.370;2022-11-21T02:13:34;98965.47;;;5.65;85.14
71239;BME280;61342;51.442;7.370;2022-11-21T02:14:36;98957.47;;;5.63;85.42
71239;BME280;61342;51.442;7.370;2022-11-21T02:15:37;98962.38;;;5.63;85.07
71239;BME280;61342;51.442;7.370;2022-11-21T02:16:38;98959.28;;;5.61;85.39
71239;BME280;61342;51.442;7.370;2022-11-21T02:17:39;98967.31;;;5.62;85.37
71239;BME280;61342;51.442;7.370;2022-11-21T02:18:39;98966.53;;;5.62;85.34
71239;BME280;61342;51.442;7.370;2022-11-21T02:20:16;98965.47;;;5.65;84.87
71239;BME280;61342;51.442;7.370;2022-11-21T02:21:21;98962.91;;;5.61;85.04
71239;BME280;61342;51.442;7.370;2022-11-21T02:22:27;98952.53;;;5.64;85.39
71239;BME280;61342;51.442;7.370;2022-11-21T02:23:40;98951.50;;;5.61;85.29
71239;BME280;61342;51.442;7.370;2022-11-21T02:26:24;98954.88;;;5.60;85.15
71239;BME280;61342;51.442;7.370;2022-11-21T02:27:25;98958.00;;;5.62;85.25
71239;BME280;61342;51.442;7.370;2022-11-21T02:28:26;98955.16;;;5.62;85.38
71239;BME280;61342;51.442;7.370;2022-11-21T02:29:27;98953.59;;;5.61;85.15
71239;BME280;61342;51.442;7.370;2022-11-21T02:30:28;98951.28;;;5.59;85.28
71239;BME280;61342;51.442;7.370;2022-11-21T02:31:30;98958.53;;;5.60;85.37
71239;BME280;61342;51.442;7.370;2022-11-21T02:32:33;98959.28;;;5.61;85.39
71239;BME280;61342;51.442;7.370;2022-11-21T02:33:34;98956.97;;;5.59;85.39
71239;BME280;61342;51.442;7.370;2022-11-21T02:34:35;98963.69;;;5.62;85.20
71239;BME280;61342;51.442;7.370;2022-11-21T02:35:35;98958.53;;;5.60;85.42
71239;BME280;61342;51.442;7.370;2022-11-21T02:37:40;98949.97;;;5.60;85.34
71239;BME280;61342;51.442;7.370;2022-11-21T02:38:42;98952.03;;;5.60;85.25
71239;BME280;61342;51.442;7.370;2022-11-21T02:39:43;98959.53;;;5.63;85.22
71239;BME280;61342;51.442;7.370;2022-11-21T02:41:00;98958.53;;;5.60;85.44
71239;BME280;61342;51.442;7.370;2022-11-21T02:42:15;98959.03;;;5.59;85.40
71239;BME280;61342;51.442;7.370;2022-11-21T02:43:22;98967.06;;;5.60;85.34
71239;BME280;61342;51.442;7.370;2022-11-21T02:44:28;98960.06;;;5.61;85.74
71239;BME280;61342;51.442;7.370;2022-11-21T02:45:32;98958.00;;;5.62;85.44
71239;BME280;61342;51.442;7.370;2022-11-21T02:46:34;98960.84;;;5.62;85.62
71239;BME280;61342;51.442;7.370;2022-11-21T02:47:37;98962.91;;;5.61;84.98
71239;BME280;61342;51.442;7.370;2022-11-21T02:48:38;98965.00;;;5.61;85.34
71239;BME280;61342;51.442;7.370;2022-11-21T02:49:43;98966.53;;;5.62;85.75
71239;BME280;61342;51.442;7.370;2022-11-21T02:50:47;98959.28;;;5.61;85.39
71239;BME280;61342;51.442;7.370;2022-11-21T02:51:47;98969.13;;;5.60;85.31
71239;BME280;61342;51.442;7.370;2022-11-21T02:52:48;98964.72;;;5.59;85.35
71239;BME280;61342;51.442;7.370;2022-11-21T02:53:48;98967.84;;;5.61;85.65
71239;BME280;61342;51.442;7.370;2022-11-21T02:54:48;98959.81;;;5.59;85.52
71239;BME280;61342;51.442;7.370;2022-11-21T02:55:49;98953.09;;;5.57;85.54
71239;BME280;61342;51.442;7.370;2022-11-21T02:56:49;98965.00;;;5.61;85.33
71239;BME280;61342;51.442;7.370;2022-11-21T02:57:50;98962.91;;;5.61;85.46
71239;BME280;61342;51.442;7.370;2022-11-21T02:58:51;98967.06;;;5.60;85.66
71239;BME280;61342;51.442;7.370;2022-11-21T02:59:51;98968.59;;;5.61;85.46
71239;BME280;61342;51.442;7.370;2022-11-21T03:00:51;98958.53;;;5.60;85.63
71239;BME280;61342;51.442;7.370;2022-11-21T03:01:54;98956.72;;;5.57;85.48
71239;BME280;61342;51.442;7.370;2022-11-21T03:02:58;98955.41;;;5.58;85.35
71239;BME280;61342;51.442;7.370;2022-11-21T03:03:59;98960.59;;;5.60;85.48
71239;BME280;61342;51.442;7.370;2022-11-21T03:05:00;98961.38;;;5.60;85.59
71239;BME280;61342;51.442;7.370;2022-11-21T03:06:00;98946.63;;;5.56;85.68
71239;BME280;61342;51.442;7.370;2022-11-21T03:07:00;98953.31;;;5.59;85.65
71239;BME280;61342;51.442;7.370;2022-11-21T03:08:01;98961.38;;;5.60;85.74
71239;BME280;61342;51.442;7.370;2022-11-21T03:09:02;98962.13;;;5.61;85.54
71239;BME280;61342;51.442;7.370;2022-11-21T03:10:03;98969.94;;;5.60;85.46
71239;BME280;61342;51.442;7.370;2022-11-21T03:11:04;98971.22;;;5.59;85.48
71239;BME280;61342;51.442;7.370;2022-11-21T03:12:08;98974.06;;;5.59;85.63
71239;BME280;61342;51.442;7.370;2022-11-21T03:13:09;98964.50;;;5.57;85.56
71239;BME280;61342;51.442;7.370;2022-11-21T03:14:09;98976.13;;;5.59;85.54
71239;BME280;61342;51.442;7.370;2022-11-21T03:15:11;98976.38;;;5.61;85.55
71239;BME280;61342;51.442;7.370;2022-11-21T03:16:12;98972.50;;;5.58;85.39
71239;BME280;61342;51.442;7.370;2022-11-21T03:17:12;98966.81;;;5.58;85.34
71239;BME280;61342;51.442;7.370;2022-11-21T03:18:13;98967.56;;;5.59;85.70
71239;BME280;61342;51.442;7.370;2022-11-21T03:19:13;98971.97;;;5.60;85.83
71239;BME280;61342;51.442;7.370;2022-11-21T03:20:14;98967.06;;;5.60;85.55
71239;BME280;61342;51.442;7.370;2022-11-21T03:21:14;98967.56;;;5.59;85.59
71239;BME280;61342;51.442;7.370;2022-11-21T03:22:14;98953.66;;;5.50;85.59
71239;BME280;61342;51.442;7.370;2022-11-21T03:23:15;98970.19;;;5.57;85.68
71239;BME280;61342;51.442;7.370;2022-11-21T03:24:15;98964.50;;;5.57;85.54
71239;BME280;61342;51.442;7.370;2022-11-21T03:25:15;98951.06;;;5.52;85.73
71239;BME280;61342;51.442;7.370;2022-11-21T03:26:16;98965.25;;;5.57;86.01
71239;BME280;61342;51.442;7.370;2022-11-21T03:27:17;98966.59;;;5.56;85.35
71239;BME280;61342;51.442;7.370;2022-11-21T03:28:17;98966.06;;;5.58;85.31
71239;BME280;61342;51.442;7.370;2022-11-21T03:29:17;98963.19;;;5.58;85.55
71239;BME280;61342;51.442;7.370;2022-11-21T03:30:19;98966.06;;;5.58;85.51
71239;BME280;61342;51.442;7.370;2022-11-21T03:31:20;98964.22;;;5.55;85.66
71239;BME280;61342;51.442;7.370;2022-11-21T03:32:20;98969.44;;;5.56;85.60
71239;BME280;61342;51.442;7.370;2022-11-21T03:33:20;98964.50;;;5.57;85.76
71239;BME280;61342;51.442;7.370;2022-11-21T03:34:21;98967.63;;;5.53;85.76
71239;BME280;61342;51.442;7.370;2022-11-21T03:35:21;98964.50;;;5.57;85.72
71239;BME280;61342;51.442;7.370;2022-11-21T03:36:22;98970.19;;;5.57;85.77
71239;BME280;61342;51.442;7.370;2022-11-21T03:37:22;98971.50;;;5.56;85.43
71239;BME280;61342;51.442;7.370;2022-11-21T03:38:23;98961.38;;;5.55;85.58
71239;BME280;61342;51.442;7.370;2022-11-21T03:39:23;98962.72;;;5.54;85.66
71239;BME280;61342;51.442;7.370;2022-11-21T03:40:23;98962.97;;;5.50;85.69
71239;BME280;61342;51.442;7.370;2022-11-21T03:41:25;98961.91;;;5.53;85.55
71239;BME280;61342;51.442;7.370;2022-11-21T03:42:28;98966.84;;;5.53;85.54
71239;BME280;61342;51.442;7.370;2022-11-21T03:43:29;98972.28;;;5.51;85.34
71239;BME280;61342;51.442;7.370;2022-11-21T03:44:29;98970.47;;;5.53;85.56
71239;BME280;61342;51.442;7.370;2022-11-21T03:45:29;98967.91;;;5.50;85.32
71239;BME280;61342;51.442;7.370;2022-11-21T03:46:35;98963.75;;;5.51;85.58
71239;BME280;61342;51.442;7.370;2022-11-21T03:47:36;98971.53;;;5.50;85.39
71239;BME280;61342;51.442;7.370;2022-11-21T03:48:36;98970.75;;;5.50;85.67
71239;BME280;61342;51.442;7.370;2022-11-21T03:49:38;98969.75;;;5.47;85.46
71239;BME280;61342;51.442;7.370;2022-11-21T03:50:41;98972.31;;;5.45;85.24
71239;BME280;61342;51.442;7.370;2022-11-21T03:51:43;98963.78;;;5.45;85.52
71239;BME280;61342;51.442;7.370;2022-11-21T03:52:43;98968.94;;;5.47;85.63
71239;BME280;61342;51.442;7.370;2022-11-21T03:53:43;98973.13;;;5.46;85.41
71239;BME280;61342;51.442;7.370;2022-11-21T03:54:44;98975.72;;;5.44;85.42
71239;BME280;61342;51.442;7.370;2022-11-21T03:55:44;98972.31;;;5.45;85.63
71239;BME280;61342;51.442;7.370;2022-11-21T03:56:44;98982.69;;;5.43;85.45
71239;BME280;61342;51.442;7.370;2022-11-21T03:57:45;98969.50;;;5.40;85.30
71239;BME280;61342;51.442;7.370;2022-11-21T03:58:45;98974.16;;;5.43;85.36
71239;BME280;61342;51.442;7.370;2022-11-21T03:59:45;98969.50;;;5.40;85.24
71239;BME280;61342;51.442;7.370;2022-11-21T04:00:46;98967.72;;;5.37;85.25
71239;BME280;61342;51.442;7.370;2022-11-21T04:01:46;98965.38;;;5.41;85.30
71239;BME280;61342;51.442;7.370;2022-11-21T04:02:47;98972.34;;;5.40;85.25
71239;BME280;61342;51.442;7.370;2022-11-21T04:03:47;98967.72;;;5.37;85.28
71239;BME280;61342;51.442;7.370;2022-11-21T04:04:48;98966.44;;;5.38;84.71
71239;BME280;61342;51.442;7.370;2022-11-21T04:05:48;98977.81;;;5.38;85.20
71239;BME280;61342;51.442;7.370;2022-11-21T04:06:48;98964.63;;;5.35;85.13
71239;BME280;61342;51.442;7.370;2022-11-21T04:07:49;98968.78;;;5.34;85.31
71239;BME280;61342;51.442;7.370;2022-11-21T04:08:50;98972.63;;;5.36;85.09
71239;BME280;61342;51.442;7.370;2022-11-21T04:09:50;98969.53;;;5.34;85.30
71239;BME280;61342;51.442;7.370;2022-11-21T04:10:52;98970.31;;;5.35;85.21
71239;BME280;61342;51.442;7.370;2022-11-21T04:11:52;98970.06;;;5.33;85.06
71239;BME280;61342;51.442;7.370;2022-11-21T04:12:53;98971.63;;;5.34;85.20
71239;BME280;61342;51.442;7.370;2022-11-21T04:13:53;98956.63;;;5.28;85.26
71239;BME280;61342;51.442;7.370;2022-11-21T04:14:54;98963.09;;;5.28;85.10
71239;BME280;61342;51.442;7.370;2022-11-21T04:15:54;98960.25;;;5.28;85.13
71239;BME280;61342;51.442;7.370;2022-11-21T04:16:54;98968.78;;;5.28;85.13
71239;BME280;61342;51.442;7.370;2022-11-21T04:17:55;98967.50;;;5.29;85.27
71239;BME280;61342;51.442;7.370;2022-11-21T04:18:55;98970.88;;;5.28;84.74
71239;BME280;61342;51.442;7.370;2022-11-21T04:19:55;98969.31;;;5.27;85.14
71239;BME280;61342;51.442;7.370;2022-11-21T04:21:57;98969.31;;;5.27;85.15
71239;BME280;61342;51.442;7.370;2022-11-21T04:22:57;98969.84;;;5.25;85.17
71239;BME280;61342;51.442;7.370;2022-11-21T04:23:57;98973.44;;;5.26;85.16
71239;BME280;61342;51.442;7.370;2022-11-21T04:24:58;98968.28;;;5.24;85.01
71239;BME280;61342;51.442;7.370;2022-11-21T04:25:58;98964.94;;;5.20;85.22
71239;BME280;61342;51.442;7.370;2022-11-21T04:26:59;98967.25;;;5.22;85.29
71239;BME280;61342;51.442;7.370;2022-11-21T04:28:00;98972.19;;;5.21;85.24
71239;BME280;61342;51.442;7.370;2022-11-21T04:29:01;98963.66;;;5.21;84.97
71239;BME280;61342;51.442;7.370;2022-11-21T04:30:01;98959.53;;;5.17;84.97
71239;BME280;61342;51.442;7.370;2022-11-21T04:31:06;98971.97;;;5.19;85.04
71239;BME280;61342;51.442;7.370;2022-11-21T04:32:06;98960.56;;;5.19;85.15
71239;BME280;61342;51.442;7.370;2022-11-21T04:33:06;98968.31;;;5.19;85.11
71239;BME280;61342;51.442;7.370;2022-11-21T04:34:07;98965.47;;;5.19;85.05
71239;BME280;61342;51.442;7.370;2022-11-21T04:35:07;98960.31;;;5.17;85.16
71239;BME280;61342;51.442;7.370;2022-11-21T04:36:08;98969.38;;;5.16;84.96
71239;BME280;61342;51.442;7.370;2022-11-21T04:37:08;98966.00;;;5.17;85.16
71239;BME280;61342;51.442;7.370;2022-11-21T04:38:10;98970.94;;;5.17;85.11
71239;BME280;61342;51.442;7.370;2022-11-21T04:39:10;98971.97;;;5.19;84.87
71239;BME280;61342;51.442;7.370;2022-11-21T04:40:12;98966.75;;;5.18;85.08
71239;BME280;61342;51.442;7.370;2022-11-21T04:41:12;98976.63;;;5.17;84.67
71239;BME280;61342;51.442;7.370;2022-11-21T04:42:13;98973.50;;;5.15;85.24
71239;BME280;61342;51.442;7.370;2022-11-21T04:43:13;98966.53;;;5.16;85.31
71239;BME280;61342;51.442;7.370;2022-11-21T04:44:13;98970.94;;;5.17;85.29
71239;BME280;61342;51.442;7.370;2022-11-21T04:45:15;98987.22;;;5.16;85.16
71239;BME280;61342;51.442;7.370;2022-11-21T04:46:15;98972.47;;;5.13;85.29
71239;BME280;61342;51.442;7.370;2022-11-21T04:47:16;98982.06;;;5.15;85.23
71239;BME280;61342;51.442;7.370;2022-11-21T04:48:16;98982.31;;;5.17;85.22
71239;BME280;61342;51.442;7.370;2022-11-21T04:49:17;98978.69;;;5.16;85.08
71239;BME280;61342;51.442;7.370;2022-11-21T04:50:18;98986.47;;;5.16;85.24
71239;BME280;61342;51.442;7.370;2022-11-21T04:51:18;98979.50;;;5.12;85.26
71239;BME280;61342;51.442;7.370;2022-11-21T04:52:19;98980.25;;;5.12;85.26
71239;BME280;61342;51.442;7.370;2022-11-21T04:53:19;98980.00;;;5.15;85.26
71239;BME280;61342;51.442;7.370;2022-11-21T04:54:19;98990.59;;;5.15;85.27
71239;BME280;61342;51.442;7.370;2022-11-21T04:55:21;98982.09;;;5.10;85.38
71239;BME280;61342;51.442;7.370;2022-11-21T04:56:22;98989.84;;;5.14;85.31
71239;BME280;61342;51.442;7.370;2022-11-21T04:57:22;98980.25;;;5.12;85.32
71239;BME280;61342;51.442;7.370;2022-11-21T04:58:23;98985.97;;;5.12;85.06
71239;BME280;61342;51.442;7.370;2022-11-21T04:59:23;98976.38;;;5.10;85.31
71239;BME280;61342;51.442;7.370;2022-11-21T05:00:23;98982.84;;;5.10;85.09
71239;BME280;61342;51.442;7.370;2022-11-21T05:01:24;98979.75;;;5.08;85.35
71239;BME280;61342;51.442;7.370;2022-11-21T05:02:24;98980.78;;;5.11;85.22
71239;BME280;61342;51.442;7.370;2022-11-21T05:03:25;98981.31;;;5.09;85.34
71239;BME280;61342;51.442;7.370;2022-11-21T05:04:25;98994.00;;;5.08;85.12
71239;BME280;61342;51.442;7.370;2022-11-21T05:05:25;98991.16;;;5.08;85.42
71239;BME280;61342;51.442;7.370;2022-11-21T05:06:26;98989.06;;;5.09;85.30
71239;BME280;61342;51.442;7.370;2022-11-21T05:07:26;98979.25;;;5.10;85.15
71239;BME280;61342;51.442;7.370;2022-11-21T05:08:27;98982.84;;;5.10;85.28
71239;BME280;61342;51.442;7.370;2022-11-21T05:09:27;98972.00;;;5.03;85.16
71239;BME280;61342;51.442;7.370;2022-11-21T05:10:28;98981.31;;;5.09;85.21
71239;BME280;61342;51.442;7.370;2022-11-21T05:11:28;98986.22;;;5.09;85.22
71239;BME280;61342;51.442;7.370;2022-11-21T05:12:47;98986.75;;;5.07;85.19
71239;BME280;61342;51.442;7.370;2022-11-21T05:14:06;98981.59;;;5.06;85.54
71239;BME280;61342;51.442;7.370;2022-11-21T05:15:06;98973.56;;;5.04;85.52
71239;BME280;61342;51.442;7.370;2022-11-21T05:16:07;98976.16;;;5.08;85.33
71239;BME280;61342;51.442;7.370;2022-11-21T05:17:07;98975.63;;;5.04;85.34
71239;BME280;61342;51.442;7.370;2022-11-21T05:18:08;98974.34;;;5.05;85.42
71239;BME280;61342;51.442;7.370;2022-11-21T05:19:09;98970.47;;;5.08;85.66
71239;BME280;61342;51.442;7.370;2022-11-21T05:20:09;98974.59;;;5.07;85.21
71239;BME280;61342;51.442;7.370;2022-11-21T05:21:10;98969.44;;;5.05;85.43
71239;BME280;61342;51.442;7.370;2022-11-21T05:22:10;98966.81;;;5.07;85.22
71239;BME280;61342;51.442;7.370;2022-11-21T05:23:11;98976.16;;;5.08;85.27
71239;BME280;61342;51.442;7.370;2022-11-21T05:24:11;98970.19;;;5.06;85.36
71239;BME280;61342;51.442;7.370;2022-11-21T05:25:12;98953.94;;;4.95;85.44
71239;BME280;61342;51.442;7.370;2022-11-21T05:26:12;98970.19;;;5.06;85.34
71239;BME280;61342;51.442;7.370;2022-11-21T05:27:12;98966.81;;;5.07;85.67
71239;BME280;61342;51.442;7.370;2022-11-21T05:28:13;98974.06;;;5.08;85.58
71239;BME280;61342;51.442;7.370;2022-11-21T05:29:13;98962.19;;;5.04;85.37
71239;BME280;61342;51.442;7.370;2022-11-21T05:30:14;98971.22;;;5.08;85.52
71239;BME280;61342;51.442;7.370;2022-11-21T05:31:14;98970.47;;;5.08;85.65
71239;BME280;61342;51.442;7.370;2022-11-21T05:32:14;98965.25;;;5.06;85.52
71239;BME280;61342;51.442;7.370;2022-11-21T05:33:15;98967.63;;;5.08;85.65
71239;BME280;61342;51.442;7.370;2022-11-21T05:34:15;98972.28;;;5.05;85.82
71239;BME280;61342;51.442;7.370;2022-11-21T05:35:16;98968.63;;;5.05;85.40
71239;BME280;61342;51.442;7.370;2022-11-21T05:36:16;98970.97;;;5.06;85.42
71239;BME280;61342;51.442;7.370;2022-11-21T05:37:16;98976.91;;;5.08;85.53
71239;BME280;61342;51.442;7.370;2022-11-21T05:38:17;98971.75;;;5.07;85.25